createdAt,value
2022-10-09T00:01:18.099Z,1.83
2022-10-09T00:03:49.785Z,1.38
2022-10-09T00:06:21.190Z,1.40
2022-10-09T00:08:49.489Z,1.25
2022-10-09T00:11:19.939Z,1.55
2022-10-09T00:13:48.255Z,1.40
2022-10-09T00:16:17.747Z,1.40
2022-10-09T00:18:46.203Z,1.38
2022-10-09T00:21:21.809Z,1.38
2022-10-09T00:23:50.888Z,1.15
2022-10-09T00:26:19.657Z,1.52
2022-10-09T00:28:48.326Z,1.27
2022-10-09T00:31:17.218Z,1.30
2022-10-09T00:33:45.738Z,1.27
2022-10-09T00:36:16.649Z,1.40
2022-10-09T00:38:46.312Z,0.98
2022-10-09T00:41:17.250Z,1.33
2022-10-09T00:43:48.969Z,1.75
2022-10-09T00:46:29.496Z,1.30
2022-10-09T00:49:03.547Z,1.20
2022-10-09T00:51:33.286Z,1.67
2022-10-09T00:54:04.081Z,1.50
2022-10-09T00:56:32.166Z,1.08
2022-10-09T00:59:01.087Z,1.10
2022-10-09T01:01:29.185Z,1.30
2022-10-09T01:03:57.277Z,1.20
2022-10-09T01:06:38.302Z,1.67
2022-10-09T01:09:14.615Z,0.90
2022-10-09T01:11:51.754Z,1.50
2022-10-09T01:14:26.021Z,1.10
2022-10-09T01:16:59.811Z,1.20
2022-10-09T01:19:45.703Z,1.30
2022-10-09T01:22:26.267Z,1.23
2022-10-09T01:25:02.685Z,1.25
2022-10-09T01:27:33.680Z,1.27
2022-10-09T01:30:03.550Z,0.90
2022-10-09T01:32:34.355Z,0.88
2022-10-09T01:35:05.767Z,1.42
2022-10-09T01:37:36.649Z,1.27
2022-10-09T01:40:05.456Z,1.10
2022-10-09T01:42:35.578Z,1.00
2022-10-09T01:45:03.990Z,1.10
2022-10-09T01:47:32.118Z,1.02
2022-10-09T01:50:07.720Z,1.10
2022-10-09T01:52:43.240Z,1.02
2022-10-09T01:55:25.116Z,1.40
2022-10-09T01:58:01.874Z,0.95
2022-10-09T02:00:34.187Z,1.15
2022-10-09T02:03:04.065Z,0.95
2022-10-09T02:05:33.711Z,1.55
2022-10-09T02:08:02.128Z,1.05
2022-10-09T02:10:32.139Z,1.35
2022-10-09T02:13:02.115Z,1.20
2022-10-09T02:15:48.751Z,1.40
2022-10-09T02:18:22.665Z,0.98
2022-10-09T02:20:56.658Z,1.40
2022-10-09T02:23:25.837Z,1.30
2022-10-09T02:25:54.745Z,1.10
2022-10-09T02:28:24.372Z,1.05
2022-10-09T02:30:58.792Z,1.38
2022-10-09T02:33:33.373Z,1.25
2022-10-09T02:36:02.302Z,1.30
2022-10-09T02:38:30.416Z,0.85
2022-10-09T02:41:02.419Z,1.02
2022-10-09T02:43:32.168Z,1.17
2022-10-09T02:46:00.213Z,1.10
2022-10-09T02:48:28.448Z,1.00
2022-10-09T02:50:56.891Z,1.00
2022-10-09T02:53:24.895Z,1.10
2022-10-09T02:55:52.868Z,1.20
2022-10-09T02:58:20.986Z,1.00
2022-10-09T03:00:52.065Z,1.83
2022-10-09T03:03:21.369Z,1.15
2022-10-09T03:05:49.582Z,1.13
2022-10-09T03:08:17.592Z,1.08
2022-10-09T03:10:45.693Z,0.90
2022-10-09T03:13:13.691Z,1.23
2022-10-09T03:15:42.110Z,0.80
2022-10-09T03:18:11.545Z,1.00
2022-10-09T03:20:39.686Z,0.95
2022-10-09T03:23:08.094Z,1.00
2022-10-09T03:25:36.106Z,0.93
2022-10-09T03:28:04.443Z,1.17
2022-10-09T03:30:32.424Z,0.90
2022-10-09T03:33:00.518Z,1.23
2022-10-09T03:35:30.121Z,0.93
2022-10-09T03:37:58.399Z,1.33
2022-10-09T03:40:26.678Z,1.17
2022-10-09T03:42:54.655Z,1.15
2022-10-09T03:45:22.619Z,1.20
2022-10-09T03:47:51.121Z,1.02
2022-10-09T03:50:19.185Z,1.30
2022-10-09T03:52:49.018Z,1.02
2022-10-09T03:55:17.515Z,1.05
2022-10-09T03:57:45.902Z,1.10
2022-10-09T04:00:15.269Z,1.23
2022-10-09T04:02:43.290Z,0.95
2022-10-09T04:05:11.803Z,1.10
2022-10-09T04:07:39.821Z,1.13
2022-10-09T04:10:09.982Z,1.13
2022-10-09T04:12:38.070Z,1.23
2022-10-09T04:15:06.730Z,2.75
2022-10-09T04:17:34.706Z,1.08
2022-10-09T04:20:02.766Z,1.38
2022-10-09T04:22:30.730Z,1.10
2022-10-09T04:24:58.733Z,1.10
2022-10-09T04:27:28.490Z,1.38
2022-10-09T04:29:56.493Z,1.30
2022-10-09T04:32:24.516Z,1.40
2022-10-09T04:34:52.704Z,1.25
2022-10-09T04:37:20.697Z,1.40
2022-10-09T04:39:48.827Z,1.40
2022-10-09T04:42:16.814Z,1.48
2022-10-09T04:44:46.158Z,1.27
2022-10-09T04:47:14.444Z,1.08
2022-10-09T04:49:42.415Z,1.20
2022-10-09T04:52:10.362Z,1.02
2022-10-09T04:54:38.385Z,1.23
2022-10-09T04:57:06.377Z,1.45
2022-10-09T04:59:34.558Z,1.23
2022-10-09T05:02:04.147Z,1.23
2022-10-09T05:04:32.272Z,1.38
2022-10-09T05:07:00.303Z,1.20
2022-10-09T05:09:28.485Z,1.13
2022-10-09T05:11:56.647Z,1.20
2022-10-09T05:14:24.891Z,1.45
2022-10-09T05:17:12.925Z,1.10
2022-10-09T05:19:42.877Z,1.15
2022-10-09T05:22:11.149Z,1.50
2022-10-09T05:24:39.137Z,1.63
2022-10-09T05:27:07.303Z,1.23
2022-10-09T05:29:35.316Z,0.90
2022-10-09T05:32:03.354Z,1.60
2022-10-09T05:34:31.429Z,1.45
2022-10-09T05:37:00.828Z,1.15
2022-10-09T05:39:29.185Z,1.60
2022-10-09T05:41:57.291Z,1.45
2022-10-09T05:44:25.371Z,1.40
2022-10-09T05:46:53.398Z,1.60
2022-10-09T05:49:21.710Z,1.10
2022-10-09T05:51:49.951Z,1.15
2022-10-09T05:54:19.614Z,2.60
2022-10-09T05:56:47.914Z,1.60
2022-10-09T05:59:19.890Z,1.35
2022-10-09T06:01:50.266Z,2.15
2022-10-09T06:04:20.376Z,1.75
2022-10-09T06:06:49.982Z,1.77
2022-10-09T06:09:22.528Z,1.80
2022-10-09T06:11:51.154Z,1.90
2022-10-09T06:14:21.906Z,2.67
2022-10-09T06:16:50.872Z,2.10
2022-10-09T06:19:20.789Z,3.20
2022-10-09T06:21:49.325Z,4.30
2022-10-09T06:24:27.832Z,3.15
2022-10-09T06:26:56.916Z,4.55
2022-10-09T06:29:25.421Z,3.10
2022-10-09T06:31:53.851Z,2.60
2022-10-09T06:34:22.101Z,2.45
2022-10-09T06:36:50.589Z,2.25
2022-10-09T06:39:20.105Z,2.35
2022-10-09T06:41:48.454Z,1.98
2022-10-09T06:44:17.372Z,2.08
2022-10-09T06:46:47.080Z,1.88
2022-10-09T06:49:15.498Z,1.70
2022-10-09T06:51:43.575Z,1.50
2022-10-09T06:54:13.570Z,1.60
2022-10-09T06:56:43.254Z,1.60
2022-10-09T06:59:12.367Z,1.65
2022-10-09T07:01:40.828Z,1.88
2022-10-09T07:04:11.874Z,1.30
2022-10-09T07:06:42.160Z,1.92
2022-10-09T07:09:12.233Z,2.35
2022-10-09T07:11:43.599Z,1.60
2022-10-09T07:14:13.518Z,1.63
2022-10-09T07:16:43.515Z,1.52
2022-10-09T07:19:12.572Z,1.50
2022-10-09T07:21:42.538Z,1.70
2022-10-09T07:24:11.398Z,1.70
2022-10-09T07:26:41.241Z,1.77
2022-10-09T07:29:11.861Z,1.88
2022-10-09T07:31:40.270Z,1.85
2022-10-09T07:34:08.289Z,1.52
2022-10-09T07:36:36.284Z,1.70
2022-10-09T07:39:05.706Z,1.70
2022-10-09T07:41:33.976Z,1.70
2022-10-09T07:44:02.245Z,1.40
2022-10-09T07:46:33.983Z,1.67
2022-10-09T07:49:02.479Z,1.30
2022-10-09T07:51:31.134Z,1.40
2022-10-09T07:54:00.296Z,1.30
2022-10-09T07:56:30.355Z,1.23
2022-10-09T07:59:00.238Z,1.55
2022-10-09T08:01:29.763Z,1.27
2022-10-09T08:04:00.220Z,1.30
2022-10-09T08:06:29.089Z,1.45
2022-10-09T08:08:59.101Z,1.63
2022-10-09T08:11:28.782Z,1.33
2022-10-09T08:13:56.808Z,1.40
2022-10-09T08:16:25.749Z,1.40
2022-10-09T08:18:56.319Z,1.80
2022-10-09T08:21:26.176Z,1.50
2022-10-09T08:23:55.670Z,1.30
2022-10-09T08:26:25.060Z,1.10
2022-10-09T08:28:54.805Z,1.27
2022-10-09T08:31:24.045Z,1.50
2022-10-09T08:33:54.489Z,1.45
2022-10-09T08:36:23.169Z,1.30
2022-10-09T08:38:52.660Z,1.00
2022-10-09T08:41:40.184Z,1.20
2022-10-09T08:44:14.731Z,1.08
2022-10-09T08:47:03.900Z,1.42
2022-10-09T08:49:41.317Z,1.33
2022-10-09T08:52:20.544Z,1.50
2022-10-09T08:54:50.174Z,1.48
2022-10-09T08:57:18.833Z,1.75
2022-10-09T08:59:47.159Z,0.90
2022-10-09T09:02:39.362Z,2.33
2022-10-09T09:05:20.859Z,1.13
2022-10-09T09:07:55.487Z,1.17
2022-10-09T09:10:35.314Z,1.10
2022-10-09T09:13:16.594Z,1.05
2022-10-09T09:15:51.416Z,1.52
2022-10-09T09:18:30.477Z,0.88
2022-10-09T09:21:05.310Z,1.15
2022-10-09T09:23:39.630Z,0.95
2022-10-09T09:26:14.713Z,0.90
2022-10-09T09:28:44.586Z,1.08
2022-10-09T09:31:19.506Z,1.20
2022-10-09T09:33:53.564Z,1.25
2022-10-09T09:36:25.689Z,0.73
2022-10-09T09:41:45.061Z,0.82
2022-10-09T09:44:14.824Z,1.10
2022-10-09T09:46:43.357Z,1.00
2022-10-09T09:49:18.823Z,0.82
2022-10-09T09:51:47.958Z,1.10
2022-10-09T09:54:20.007Z,0.80
2022-10-09T09:57:12.043Z,1.08
2022-10-09T09:59:40.585Z,0.80
2022-10-09T10:02:14.798Z,0.93
2022-10-09T10:04:53.819Z,0.98
2022-10-09T10:07:32.429Z,0.70
2022-10-09T10:10:06.245Z,0.88
2022-10-09T10:12:40.459Z,0.93
2022-10-09T10:15:19.018Z,0.90
2022-10-09T10:17:49.503Z,0.80
2022-10-09T10:20:18.810Z,0.70
2022-10-09T10:22:52.915Z,0.88
2022-10-09T10:25:24.480Z,0.93
2022-10-09T10:27:59.122Z,0.63
2022-10-09T10:30:27.209Z,0.80
2022-10-09T10:32:59.909Z,1.00
2022-10-09T10:35:30.976Z,0.82
2022-10-09T10:38:06.244Z,1.30
2022-10-09T10:40:38.221Z,4.03
2022-10-09T10:43:30.615Z,2.67
2022-10-09T10:46:04.225Z,9.85
2022-10-09T10:48:34.704Z,3.28
2022-10-09T10:51:10.741Z,3.92
2022-10-09T10:53:53.724Z,1.90
2022-10-09T10:56:29.534Z,0.88
2022-10-09T10:59:17.014Z,0.75
2022-10-09T11:01:55.444Z,0.70
2022-10-09T11:04:40.300Z,1.10
2022-10-09T11:07:19.693Z,0.75
2022-10-09T11:09:58.481Z,1.08
2022-10-09T11:12:47.881Z,0.55
2022-10-09T11:15:37.926Z,0.70
2022-10-09T11:18:21.810Z,0.90
2022-10-09T11:21:13.454Z,1.00
2022-10-09T11:24:12.982Z,1.00
2022-10-09T11:26:49.071Z,0.70
2022-10-09T11:29:23.574Z,0.85
2022-10-09T11:31:57.646Z,1.08
2022-10-09T11:34:31.152Z,0.80
2022-10-09T11:37:01.518Z,0.60
2022-10-09T11:39:33.424Z,0.85
2022-10-09T11:42:02.714Z,0.82
2022-10-09T11:44:40.112Z,0.73
2022-10-09T11:47:18.872Z,0.82
2022-10-09T11:50:01.323Z,0.60
2022-10-09T11:52:39.934Z,0.82
2022-10-09T11:55:19.847Z,0.60
2022-10-09T11:57:48.660Z,1.08
2022-10-09T12:00:29.066Z,0.73
2022-10-09T12:03:01.665Z,0.40
2022-10-09T12:05:40.205Z,1.00
2022-10-09T12:08:14.094Z,0.70
2022-10-09T12:10:51.791Z,0.50
2022-10-09T12:13:42.883Z,0.65
2022-10-09T12:16:28.064Z,0.90
2022-10-09T12:18:59.535Z,0.65
2022-10-09T12:21:30.740Z,0.80
2022-10-09T12:24:00.033Z,0.40
2022-10-09T12:26:28.298Z,0.73
2022-10-09T12:28:59.707Z,0.63
2022-10-09T12:31:31.322Z,0.80
2022-10-09T12:34:04.735Z,0.93
2022-10-09T12:36:34.482Z,0.77
2022-10-09T12:39:14.782Z,0.85
2022-10-09T12:41:46.517Z,0.63
2022-10-09T12:44:24.763Z,0.57
2022-10-09T12:46:52.967Z,0.60
2022-10-09T12:49:25.744Z,0.60
2022-10-09T12:51:56.474Z,0.80
2022-10-09T12:54:25.629Z,0.52
2022-10-09T12:56:56.087Z,0.50
2022-10-09T12:59:25.796Z,0.77
2022-10-09T13:01:58.241Z,0.50
2022-10-09T13:04:32.107Z,0.50
2022-10-09T13:07:03.424Z,0.75
2022-10-09T13:09:37.416Z,0.70
2022-10-09T13:12:09.091Z,1.20
2022-10-09T13:14:42.616Z,0.70
2022-10-09T13:17:24.980Z,0.68
2022-10-09T13:19:56.659Z,0.80
2022-10-09T13:22:25.991Z,0.60
2022-10-09T13:24:55.537Z,0.70
2022-10-09T13:27:27.229Z,0.55
2022-10-09T13:29:55.881Z,0.95
2022-10-09T13:32:25.040Z,0.38
2022-10-09T13:34:55.658Z,0.68
2022-10-09T13:37:24.898Z,0.60
2022-10-09T13:39:53.747Z,0.70
2022-10-09T13:42:23.483Z,0.45
2022-10-09T13:44:51.555Z,0.63
2022-10-09T13:47:24.073Z,0.88
2022-10-09T13:49:53.994Z,0.63
2022-10-09T13:52:22.011Z,0.80
2022-10-09T13:54:50.049Z,0.60
2022-10-09T13:57:18.174Z,0.70
2022-10-09T13:59:46.546Z,0.65
2022-10-09T14:02:14.571Z,0.60
2022-10-09T14:04:42.755Z,0.70
2022-10-09T14:07:12.478Z,0.85
2022-10-09T14:09:40.670Z,1.00
2022-10-09T14:12:10.258Z,0.45
2022-10-09T14:14:38.406Z,0.50
2022-10-09T14:17:06.486Z,0.55
2022-10-09T14:19:34.589Z,0.60
2022-10-09T14:22:02.566Z,0.88
2022-10-09T14:24:31.946Z,0.88
2022-10-09T14:26:59.978Z,0.70
2022-10-09T14:29:28.060Z,0.85
2022-10-09T14:31:56.063Z,0.70
2022-10-09T14:34:24.130Z,3.20
2022-10-09T14:36:52.392Z,1.13
2022-10-09T14:39:20.445Z,1.35
2022-10-09T14:41:50.057Z,0.50
2022-10-09T14:44:18.453Z,0.80
2022-10-09T14:46:46.452Z,0.88
2022-10-09T14:49:14.829Z,0.75
2022-10-09T14:51:43.375Z,0.70
2022-10-09T14:54:12.908Z,0.80
2022-10-09T14:56:41.407Z,0.60
2022-10-09T14:59:10.759Z,0.85
2022-10-09T15:01:38.786Z,0.90
2022-10-09T15:04:07.400Z,0.80
2022-10-09T15:06:35.796Z,1.00
2022-10-09T15:09:06.229Z,0.70
2022-10-09T15:11:35.772Z,0.73
2022-10-09T15:14:04.878Z,0.47
2022-10-09T15:16:34.598Z,0.60
2022-10-09T15:19:03.076Z,0.60
2022-10-09T15:21:33.968Z,0.68
2022-10-09T15:24:04.105Z,0.68
2022-10-09T15:26:34.060Z,1.00
2022-10-09T15:29:03.356Z,0.70
2022-10-09T15:31:34.155Z,0.60
2022-10-09T15:34:02.941Z,0.68
2022-10-09T15:36:32.235Z,0.57
2022-10-09T15:39:02.959Z,0.40
2022-10-09T15:41:32.722Z,0.70
2022-10-09T15:44:02.746Z,0.50
2022-10-09T15:46:31.705Z,0.68
2022-10-09T15:49:01.501Z,0.73
2022-10-09T15:51:30.117Z,0.70
2022-10-09T15:54:01.028Z,0.60
2022-10-09T15:56:29.532Z,0.80
2022-10-09T15:58:58.384Z,0.90
2022-10-09T16:01:26.792Z,0.90
2022-10-09T16:03:54.953Z,0.80
2022-10-09T16:06:24.740Z,0.88
2022-10-09T16:08:56.766Z,0.95
2022-10-09T16:11:26.757Z,0.80
2022-10-09T16:13:55.778Z,0.95
2022-10-09T16:16:27.748Z,1.05
2022-10-09T16:18:57.062Z,1.55
2022-10-09T16:21:27.987Z,1.00
2022-10-09T16:23:59.097Z,1.73
2022-10-09T16:26:29.113Z,2.10
2022-10-09T16:28:57.570Z,2.20
2022-10-09T16:31:28.084Z,0.90
2022-10-09T16:33:56.522Z,2.72
2022-10-09T16:36:26.211Z,2.55
2022-10-09T16:38:54.290Z,2.65
2022-10-09T16:41:23.908Z,2.83
2022-10-09T16:43:53.445Z,6.95
2022-10-09T16:46:24.362Z,1.85
2022-10-09T16:48:54.003Z,15.00
2022-10-09T16:51:24.681Z,12.35
2022-10-09T16:53:55.560Z,7.07
2022-10-09T16:56:26.125Z,8.18
2022-10-09T16:58:56.987Z,8.07
2022-10-09T17:01:25.975Z,5.57
2022-10-09T17:03:55.406Z,4.43
2022-10-09T17:06:24.180Z,3.42
2022-10-09T17:08:55.324Z,4.63
2022-10-09T17:11:23.888Z,3.60
2022-10-09T17:13:52.267Z,1.83
2022-10-09T17:16:22.605Z,1.50
2022-10-09T17:18:51.424Z,1.33
2022-10-09T17:21:19.990Z,1.42
2022-10-09T17:23:48.536Z,1.10
2022-10-09T17:26:19.568Z,1.73
2022-10-09T17:28:48.499Z,0.85
2022-10-09T17:31:19.230Z,0.93
2022-10-09T17:33:49.341Z,1.00
2022-10-09T17:36:19.236Z,0.70
2022-10-09T17:38:48.388Z,1.00
2022-10-09T17:41:20.060Z,0.95
2022-10-09T17:43:48.431Z,1.27
2022-10-09T17:46:17.115Z,0.88
2022-10-09T17:48:48.977Z,0.90
2022-10-09T17:51:20.021Z,1.05
2022-10-09T17:53:48.684Z,0.93
2022-10-09T17:56:18.444Z,1.00
2022-10-09T17:58:47.567Z,0.70
2022-10-09T18:01:17.183Z,1.00
2022-10-09T18:03:45.422Z,1.05
2022-10-09T18:06:15.735Z,1.35
2022-10-09T18:08:44.091Z,1.27
2022-10-09T18:11:14.719Z,1.10
2022-10-09T18:13:45.424Z,1.25
2022-10-09T18:16:15.198Z,1.55
2022-10-09T18:18:43.495Z,1.30
2022-10-09T18:21:16.857Z,1.00
2022-10-09T18:23:45.430Z,1.48
2022-10-09T18:26:15.424Z,1.40
2022-10-09T18:28:48.297Z,1.50
2022-10-09T18:31:21.297Z,1.02
2022-10-09T18:33:49.332Z,1.30
2022-10-09T18:36:20.462Z,1.20
2022-10-09T18:38:49.657Z,0.90
2022-10-09T18:41:18.321Z,1.48
2022-10-09T18:43:48.539Z,1.10
2022-10-09T18:46:17.679Z,1.30
2022-10-09T18:48:46.918Z,1.30
2022-10-09T18:51:17.843Z,1.30
2022-10-09T18:53:49.351Z,1.23
2022-10-09T18:56:19.979Z,1.33
2022-10-09T18:58:52.276Z,1.90
2022-10-09T19:01:20.716Z,2.67
2022-10-09T19:03:50.249Z,2.60
2022-10-09T19:06:18.917Z,2.35
2022-10-09T19:08:47.456Z,2.28
2022-10-09T19:11:15.862Z,2.55
2022-10-09T19:13:44.478Z,3.28
2022-10-09T19:16:14.149Z,2.20
2022-10-09T19:18:42.237Z,1.75
2022-10-09T19:21:14.389Z,1.75
2022-10-09T19:23:43.927Z,1.55
2022-10-09T19:26:14.345Z,1.80
2022-10-09T19:28:42.578Z,1.50
2022-10-09T19:31:11.993Z,1.83
2022-10-09T19:33:42.764Z,1.63
2022-10-09T19:36:12.744Z,1.35
2022-10-09T19:38:41.530Z,1.63
2022-10-09T19:41:11.554Z,1.50
2022-10-09T19:43:40.161Z,1.52
2022-10-09T19:46:10.369Z,1.08
2022-10-09T19:48:39.245Z,1.60
2022-10-09T19:51:10.631Z,1.73
2022-10-09T19:53:39.233Z,1.42
2022-10-09T19:56:11.542Z,1.67
2022-10-09T19:58:41.787Z,1.95
2022-10-09T20:01:11.355Z,0.80
2022-10-09T20:03:39.519Z,1.13
2022-10-09T20:06:10.553Z,1.15
2022-10-09T20:08:39.038Z,1.15
2022-10-09T20:11:08.057Z,1.38
2022-10-09T20:13:38.622Z,0.93
2022-10-09T20:16:08.830Z,1.30
2022-10-09T20:18:39.262Z,1.00
2022-10-09T20:21:09.086Z,1.00
2022-10-09T20:23:37.098Z,1.25
2022-10-09T20:26:07.724Z,1.20
2022-10-09T20:28:37.463Z,0.93
2022-10-09T20:31:08.211Z,1.20
2022-10-09T20:33:37.536Z,1.48
2022-10-09T20:36:06.677Z,0.90
2022-10-09T20:38:36.513Z,1.30
2022-10-09T20:41:06.653Z,1.40
2022-10-09T20:43:34.775Z,1.10
2022-10-09T20:46:07.105Z,1.08
2022-10-09T20:48:35.154Z,1.13
2022-10-09T20:51:03.615Z,1.23
2022-10-09T20:53:32.121Z,1.40
2022-10-09T20:56:06.087Z,1.20
2022-10-09T20:58:35.485Z,1.15
2022-10-09T21:01:06.975Z,1.05
2022-10-09T21:03:35.794Z,0.85
2022-10-09T21:06:05.260Z,1.10
2022-10-09T21:08:33.640Z,0.98
2022-10-09T21:11:01.895Z,1.17
2022-10-09T21:13:31.261Z,1.52
2022-10-09T21:15:59.745Z,1.00
2022-10-09T21:18:27.965Z,1.40
2022-10-09T21:20:55.979Z,1.23
2022-10-09T21:23:24.113Z,2.38
2022-10-09T21:25:54.748Z,1.60
2022-10-09T21:28:24.186Z,0.93
2022-10-09T21:30:53.763Z,1.00
2022-10-09T21:33:21.855Z,1.10
2022-10-09T21:35:54.212Z,1.10
2022-10-09T21:38:24.206Z,0.80
2022-10-09T21:40:52.465Z,1.20
2022-10-09T21:43:20.521Z,0.95
2022-10-09T21:45:51.753Z,1.20
2022-10-09T21:48:21.147Z,0.85
2022-10-09T21:50:49.134Z,0.90
2022-10-09T21:53:17.453Z,1.00
2022-10-09T21:55:45.442Z,0.77
2022-10-09T21:58:13.471Z,0.95
2022-10-09T22:00:41.883Z,1.38
2022-10-09T22:03:09.903Z,1.98
2022-10-09T22:05:42.031Z,2.22
2022-10-09T22:08:10.441Z,2.58
2022-10-09T22:10:42.163Z,3.25
2022-10-09T22:13:10.505Z,2.30
2022-10-09T22:15:41.763Z,1.42
2022-10-09T22:18:10.191Z,2.45
2022-10-09T22:20:43.329Z,2.03
2022-10-09T22:23:12.241Z,5.05
2022-10-09T22:25:40.887Z,4.45
2022-10-09T22:28:08.991Z,2.13
2022-10-09T22:30:37.060Z,2.08
2022-10-09T22:33:05.237Z,1.88
2022-10-09T22:35:33.248Z,1.60
2022-10-09T22:38:02.978Z,1.65
2022-10-09T22:40:31.077Z,1.30
2022-10-09T22:42:59.143Z,1.40
2022-10-09T22:45:27.466Z,1.35
2022-10-09T22:47:55.777Z,1.02
2022-10-09T22:50:23.823Z,1.27
2022-10-09T22:52:52.676Z,1.73
2022-10-09T22:55:22.659Z,1.52
2022-10-09T22:57:51.084Z,1.20
2022-10-09T23:00:19.137Z,1.10
2022-10-09T23:02:47.243Z,1.10
2022-10-09T23:05:15.596Z,1.58
2022-10-09T23:07:43.562Z,1.30
2022-10-09T23:10:11.645Z,1.38
2022-10-09T23:12:41.069Z,1.48
2022-10-09T23:15:09.666Z,1.10
2022-10-09T23:17:37.693Z,1.20
2022-10-09T23:20:06.005Z,1.48
2022-10-09T23:22:34.051Z,1.13
2022-10-09T23:25:02.632Z,1.38
2022-10-09T23:27:30.687Z,1.25
2022-10-09T23:30:00.397Z,1.17
2022-10-09T23:32:28.384Z,1.05
2022-10-09T23:34:56.385Z,0.95
2022-10-09T23:37:24.656Z,1.48
2022-10-09T23:39:52.669Z,1.20
2022-10-09T23:42:20.989Z,1.10
2022-10-09T23:44:49.011Z,1.10
2022-10-09T23:47:18.355Z,1.00
2022-10-09T23:49:46.593Z,1.35
2022-10-09T23:52:14.633Z,1.40
2022-10-09T23:54:42.900Z,1.48
2022-10-09T23:57:11.319Z,1.10
2022-10-09T23:59:39.799Z,1.45
